Time;durP1;ratioP1;P1;durP2;ratioP2;P2;SDS_P1;SDS_P2;PMS_P1;PMS_P2;Temp;Humidity;BMP_temperature;BMP_pressure;BME280_temperature;BME280_humidity;BME280_pressure;Samples;Min_cycle;Max_cycle;Signal;HPM_P1;HPM_P2
2022/02/09 00:07:15;;;;;;;4.68;2.47;;;;;;;8.09;63.20;101167.94;10467320;28;20052;-69
2022/02/09 00:12:24;;;;;;;4.70;3.03;;;;;;;8.13;63.04;101164.38;10467565;28;20048;-68
2022/02/09 00:17:43;;;;;;;4.70;2.92;;;;;;;8.29;62.68;101163.00;10468488;28;20062;-68
2022/02/09 01:58:07;;;;;;;12.50;8.43;;;;;;;8.18;62.19;101132.97;10461355;28;20582;-68
2022/02/09 02:03:09;;;;;;;9.27;5.97;;;;;;;8.15;62.13;101126.09;10465898;28;20048;-68
2022/02/09 02:08:12;;;;;;;13.13;7.90;;;;;;;8.19;62.04;101127.72;10463014;28;20661;-68
2022/02/09 02:13:49;;;;;;;10.52;7.10;;;;;;;8.12;61.84;101112.31;10467838;28;20045;-68
2022/02/09 02:19:03;;;;;;;12.43;6.82;;;;;;;8.08;62.31;101108.91;10472638;28;20601;-69
2022/02/09 03:16:40;;;;;;;7.63;5.03;;;;;;;7.92;62.18;101072.06;10474250;28;20056;-68
2022/02/09 03:58:03;;;;;;;7.63;4.80;;;;;;;7.95;61.98;101048.53;10477407;28;20059;-68
2022/02/09 04:03:09;;;;;;;9.30;6.15;;;;;;;8.00;61.94;101041.41;10476128;28;20438;-68
2022/02/09 04:08:14;;;;;;;7.10;4.47;;;;;;;8.07;61.68;101038.63;10471646;28;20095;-68
2022/02/09 04:13:29;;;;;;;7.70;4.50;;;;;;;8.06;61.53;101040.38;10469484;28;20471;-68
2022/02/09 04:19:38;;;;;;;12.18;5.80;;;;;;;7.99;61.55;101042.34;10469177;28;20079;-68
2022/02/09 04:40:09;;;;;;;31.23;13.45;;;;;;;8.00;61.33;101041.41;10468878;28;20677;-68
2022/02/09 05:00:50;;;;;;;11.13;7.20;;;;;;;8.08;61.08;101027.31;10468832;28;20131;-69
2022/02/09 05:22:19;;;;;;;7.28;4.47;;;;;;;8.11;60.81;101019.41;10468112;28;20060;-69
2022/02/09 05:27:33;;;;;;;8.50;5.18;;;;;;;8.10;60.81;101022.91;10467705;28;20147;-69
2022/02/09 05:32:35;;;;;;;6.35;3.83;;;;;;;8.01;60.70;101019.69;10465744;28;20135;-69
2022/02/09 05:37:36;;;;;;;23.52;15.30;;;;;;;8.01;60.70;101029.25;10467105;28;20047;-70
2022/02/09 05:42:38;;;;;;;9.00;6.50;;;;;;;7.94;60.64;101030.34;10467837;28;20139;-70
2022/02/09 05:58:13;;;;;;;5.95;4.00;;;;;;;7.95;60.33;101021.63;10474456;28;20047;-70
2022/02/09 06:03:15;;;;;;;10.60;6.77;;;;;;;7.90;60.45;101028.72;10475092;28;20214;-69
2022/02/09 06:08:17;;;;;;;12.70;9.48;;;;;;;7.91;60.71;101023.50;10473201;28;20052;-70
2022/02/09 06:24:07;;;;;;;10.07;5.77;;;;;;;7.95;60.40;101029.44;10473990;28;20503;-69
2022/02/09 06:29:09;;;;;;;8.40;5.30;;;;;;;7.96;60.26;101021.59;10473899;28;20064;-70
2022/02/09 06:34:16;;;;;;;8.02;5.50;;;;;;;7.90;60.43;101024.38;10473899;28;20143;-70
2022/02/09 06:39:20;;;;;;;10.75;5.38;;;;;;;7.94;60.61;101020.78;10471423;28;20048;-70
2022/02/09 06:44:24;;;;;;;9.07;5.90;;;;;;;7.98;60.26;101019.78;10471674;28;20503;-70
2022/02/09 06:49:29;;;;;;;6.78;4.32;;;;;;;8.03;60.24;101023.09;10485452;28;20056;-70
2022/02/09 06:54:33;;;;;;;7.07;4.13;;;;;;;8.08;60.34;101022.09;10491265;28;20139;-70
2022/02/09 06:59:38;;;;;;;8.80;4.30;;;;;;;8.19;60.18;101027.84;10472780;28;20382;-70
2022/02/09 07:04:40;;;;;;;6.28;4.20;;;;;;;8.13;60.35;101022.81;10472989;28;20053;-69
2022/02/09 07:09:41;;;;;;;7.32;4.00;;;;;;;8.12;60.44;101026.34;10491358;28;20048;-70
2022/02/09 07:14:43;;;;;;;7.82;4.63;;;;;;;8.21;60.28;101018.22;10488434;28;20472;-69
2022/02/09 07:19:53;;;;;;;5.88;4.53;;;;;;;8.18;60.33;101024.38;10472873;28;20052;-70
2022/02/09 07:25:07;;;;;;;8.40;4.43;;;;;;;8.14;60.64;101025.38;10471075;28;20040;-69
2022/02/09 07:30:09;;;;;;;8.43;4.93;;;;;;;8.09;60.71;101023.78;10471749;28;20163;-69
2022/02/09 07:35:11;;;;;;;6.30;4.38;;;;;;;7.93;61.29;101015.63;10471551;28;20402;-69
2022/02/09 07:40:13;;;;;;;5.68;4.30;;;;;;;8.02;61.18;101020.53;10473004;28;20437;-70
2022/02/09 07:50:36;;;;;;;8.48;4.68;;;;;;;8.21;60.93;101036.47;10470469;28;20051;-70
2022/02/09 07:55:39;;;;;;;7.75;4.57;;;;;;;8.11;61.25;101028.09;10471241;28;20044;-70
2022/02/09 08:00:44;;;;;;;6.97;4.88;;;;;;;8.30;60.96;101028.34;10479671;28;20052;-70
2022/02/09 08:05:46;;;;;;;11.00;4.97;;;;;;;8.39;60.71;101017.59;10470018;28;20090;-70
2022/02/09 08:10:57;;;;;;;8.23;5.10;;;;;;;8.45;60.69;101017.41;10475795;28;20063;-71
2022/02/09 08:36:44;;;;;;;7.18;4.75;;;;;;;8.76;60.12;101007.63;10468878;28;20052;-69
2022/02/09 08:41:50;;;;;;;6.38;4.07;;;;;;;8.87;59.90;101002.88;10468929;28;20050;-69
2022/02/09 08:46:52;;;;;;;6.03;4.10;;;;;;;8.82;59.80;101007.41;10468835;28;20147;-69
2022/02/09 08:51:57;;;;;;;7.40;4.65;;;;;;;8.76;59.75;100994.56;10468867;28;20055;-69
2022/02/09 08:57:07;;;;;;;6.22;4.38;;;;;;;8.98;59.43;101000.72;10468534;28;20104;-69
2022/02/09 09:02:12;;;;;;;7.67;4.30;;;;;;;9.12;59.27;101008.91;10468461;28;20086;-69
2022/02/09 09:07:20;;;;;;;6.35;4.18;;;;;;;9.26;58.93;100995.38;10468550;28;20144;-69
2022/02/09 10:33:31;;;;;;;6.93;3.78;;;;;;;10.09;56.39;100976.41;10468429;28;20943;-67
2022/02/09 10:38:35;;;;;;;6.13;3.60;;;;;;;10.27;55.95;100975.63;10473168;28;20408;-67
2022/02/09 10:43:39;;;;;;;6.78;3.85;;;;;;;10.41;55.71;100974.16;10473134;28;20056;-67
2022/02/09 10:48:55;;;;;;;5.53;3.50;;;;;;;10.42;55.70;100973.22;10473074;28;20060;-68
2022/02/09 10:54:00;;;;;;;5.35;3.33;;;;;;;10.26;55.90;100971.31;10470692;28;20059;-67
2022/02/09 10:59:08;;;;;;;6.68;3.72;;;;;;;10.24;55.94;100965.28;10473714;28;20045;-67
2022/02/09 11:04:11;;;;;;;9.68;5.55;;;;;;;10.26;55.94;100959.09;10472649;28;20216;-67
2022/02/09 11:09:16;;;;;;;5.47;3.08;;;;;;;10.20;55.93;100953.25;10472621;28;20135;-67
2022/02/09 11:14:20;;;;;;;7.47;2.95;;;;;;;10.36;55.81;100959.53;10473304;28;20088;-67
2022/02/09 11:19:35;;;;;;;6.97;3.00;;;;;;;10.37;55.69;100956.03;10472445;28;20123;-67
2022/02/09 11:24:44;;;;;;;6.05;3.03;;;;;;;10.63;55.48;100950.50;10471765;28;20055;-67
2022/02/09 11:30:20;;;;;;;4.78;2.63;;;;;;;10.75;54.26;100952.59;10502780;28;20155;-67
2022/02/09 11:35:43;;;;;;;7.63;2.90;;;;;;;10.61;55.15;100957.59;10470672;28;20061;-67
2022/02/09 11:41:07;;;;;;;5.18;2.60;;;;;;;10.54;55.28;100956.16;10471972;28;20457;-67
2022/02/09 12:18:55;;;;;;;7.05;2.30;;;;;;;10.55;54.98;100915.13;10489040;28;20149;-67
2022/02/09 12:23:57;;;;;;;9.00;3.67;;;;;;;10.78;54.73;100902.75;10488302;28;20052;-67
2022/02/09 12:29:01;;;;;;;8.40;3.50;;;;;;;11.08;54.41;100883.06;10469463;28;20486;-67
2022/02/09 12:34:03;;;;;;;6.80;2.50;;;;;;;11.32;53.66;100881.03;10469455;28;20047;-68
2022/02/09 12:39:07;;;;;;;7.18;2.67;;;;;;;11.66;53.32;100867.16;10469143;28;20564;-68
2022/02/09 12:44:09;;;;;;;6.70;2.20;;;;;;;12.12;52.41;100862.16;10469180;28;20489;-67
2022/02/09 12:49:15;;;;;;;5.55;2.20;;;;;;;12.35;51.37;100841.78;10467641;28;20431;-68
2022/02/09 12:54:18;;;;;;;9.65;2.53;;;;;;;12.44;51.36;100836.88;10468343;28;20049;-67
2022/02/09 12:59:21;;;;;;;7.00;2.10;;;;;;;12.57;50.72;100831.84;10468352;28;20580;-67
2022/02/09 13:04:29;;;;;;;6.22;2.35;;;;;;;12.97;50.07;100820.84;10468870;28;20560;-67
2022/02/09 13:09:30;;;;;;;6.53;2.30;;;;;;;13.01;50.11;100806.63;10468890;28;20058;-67
2022/02/09 13:14:40;;;;;;;9.07;2.40;;;;;;;12.69;50.35;100804.94;10469244;28;20072;-67
2022/02/09 13:25:43;;;;;;;6.82;2.20;;;;;;;12.91;49.78;100805.44;10491261;28;20549;-67
2022/02/09 14:04:09;;;;;;;7.28;2.20;;;;;;;13.41;48.70;100781.56;10466120;28;20605;-66
2022/02/09 14:52:44;;;;;;;6.18;1.90;;;;;;;13.13;49.23;100749.94;10473756;28;20144;-66
2022/02/09 14:57:17;;;;;;;7.85;1.92;;;;;;;12.98;49.46;100732.44;10468333;28;20052;-67
2022/02/09 15:02:34;;;;;;;4.35;2.03;;;;;;;13.00;49.16;100726.16;10473319;28;20052;-67
2022/02/09 15:13:01;;;;;;;5.80;2.20;;;;;;;12.68;49.69;100719.28;10473285;28;20131;-67
2022/02/09 15:23:24;;;;;;;10.25;4.15;;;;;;;12.57;50.16;100705.88;10471868;28;20058;-68
2022/02/09 15:28:25;;;;;;;9.98;3.65;;;;;;;12.54;50.05;100706.03;10469999;28;20061;-68
2022/02/09 15:33:35;;;;;;;10.20;3.22;;;;;;;12.49;50.31;100694.97;10472368;28;20052;-67
2022/02/09 15:38:57;;;;;;;6.88;2.10;;;;;;;12.47;50.66;100695.06;10512166;28;20063;-67
2022/02/09 15:59:55;;;;;;;7.00;1.97;;;;;;;12.06;51.32;100683.31;10471082;28;20053;-67
2022/02/09 16:48:03;;;;;;;8.00;3.20;;;;;;;9.65;56.37;100696.94;10470016;28;20059;-67
2022/02/09 16:53:25;;;;;;;7.95;3.00;;;;;;;9.32;57.00;100700.97;10470833;28;20131;-67
2022/02/09 17:19:32;;;;;;;11.55;4.30;;;;;;;8.48;58.88;100704.47;10468289;28;20155;-67
2022/02/09 17:24:33;;;;;;;11.00;3.80;;;;;;;8.34;59.64;100712.84;10467953;28;20593;-68
2022/02/09 17:35:36;;;;;;;19.87;12.70;;;;;;;8.06;60.38;100698.25;10468235;28;20059;-68
2022/02/09 17:56:27;;;;;;;9.65;4.35;;;;;;;7.60;61.82;100709.47;10474699;28;20048;-67
2022/02/09 18:01:29;;;;;;;8.63;3.60;;;;;;;7.51;62.21;100704.63;10475815;28;20140;-68
2022/02/09 18:06:32;;;;;;;10.60;5.40;;;;;;;7.42;62.19;100699.72;10475874;28;20048;-67
2022/02/09 18:12:05;;;;;;;10.27;6.03;;;;;;;7.25;62.15;100691.63;10474797;28;20052;-66
2022/02/09 18:33:24;;;;;;;11.13;3.83;;;;;;;6.89;63.44;100694.56;10472267;28;20054;-66
2022/02/09 18:43:44;;;;;;;12.02;5.93;;;;;;;6.61;63.87;100685.97;10471977;28;20372;-66
2022/02/09 19:51:38;;;;;;;15.88;7.75;;;;;;;5.41;65.72;100669.59;10470560;28;20106;-66
2022/02/09 19:56:47;;;;;;;15.05;6.40;;;;;;;5.37;65.76;100676.59;10470826;28;20051;-66
2022/02/09 20:01:49;;;;;;;13.48;6.28;;;;;;;5.32;65.70;100687.97;10467525;28;20052;-66
2022/02/09 20:06:51;;;;;;;15.55;7.88;;;;;;;5.25;65.71;100676.91;10476813;28;20534;-66
2022/02/09 20:11:54;;;;;;;12.93;7.20;;;;;;;5.17;65.51;100675.41;10468268;28;20048;-66
2022/02/09 20:16:56;;;;;;;13.23;6.43;;;;;;;5.05;65.77;100666.22;10467227;28;20511;-66
2022/02/09 20:22:02;;;;;;;14.73;5.60;;;;;;;4.99;65.92;100668.97;10468902;28;20052;-66
2022/02/09 20:27:06;;;;;;;13.82;6.53;;;;;;;4.94;65.61;100669.97;10469314;28;20048;-66
2022/02/09 20:37:10;;;;;;;10.40;5.20;;;;;;;4.70;66.25;100661.03;10466777;28;20052;-66
2022/02/09 20:42:16;;;;;;;13.63;6.43;;;;;;;4.64;66.26;100671.56;10467480;28;20117;-66
2022/02/09 20:47:18;;;;;;;13.30;5.00;;;;;;;4.62;66.51;100662.97;10483691;28;20136;-66
2022/02/09 20:52:20;;;;;;;14.60;5.40;;;;;;;4.60;66.55;100660.41;10467746;28;20412;-66
2022/02/09 20:57:21;;;;;;;12.55;5.90;;;;;;;4.55;66.47;100669.19;10524136;28;20486;-66
2022/02/09 21:07:49;;;;;;;14.10;7.60;;;;;;;4.35;66.73;100667.06;10468149;28;20048;-65
2022/02/09 21:12:55;;;;;;;17.63;7.40;;;;;;;4.24;66.73;100671.63;10476986;28;20167;-65
2022/02/09 21:18:36;;;;;;;12.07;6.18;;;;;;;4.12;67.03;100665.88;10508654;28;20431;-66
2022/02/09 21:23:46;;;;;;;11.02;5.97;;;;;;;4.09;67.40;100663.38;10507518;28;20044;-66
2022/02/09 21:45:10;;;;;;;10.57;7.00;;;;;;;3.86;66.83;100648.31;10467285;28;20052;-66
2022/02/09 22:27:25;;;;;;;;;;;;;;;3.07;68.13;100607.63;10465799;28;20055;-66
2022/02/09 22:48:59;;;;;;;14.75;7.40;;;;;;;3.17;67.34;100577.31;10471299;28;20485;-71
2022/02/09 22:59:46;;;;;;;14.02;6.30;;;;;;;3.15;67.32;100571.31;10472609;28;20045;-71
2022/02/09 23:05:03;;;;;;;14.02;6.05;;;;;;;3.12;67.51;100567.06;10473638;28;20570;-70
2022/02/09 23:10:15;;;;;;;15.80;7.57;;;;;;;3.04;67.41;100567.22;10472719;28;20503;-71
2022/02/09 23:15:31;;;;;;;16.83;7.97;;;;;;;2.92;67.47;100562.28;10485033;28;20564;-71
